Grand Rapids, MI (49560)

7:28 PM EST on February 07, 2016 (GMT -0500)
Princeton Estates | | Change Station
CLOSE
Current Station
Personal Weather Station
Location: Kentwood, MI
Elevation: 771 ft
Nearby Weather Stations

Elev 771 ft 42.86 °N, 85.61 °W | Updated 7 seconds ago

Mostly Cloudy
Mostly Cloudy
40.8 °F
Feels Like 41 °F
N
0.2
Wind Variable Wind from SSW
Gusts 2.5 mph

Today
High -- | Low -- °F
--% Chance of Precip.
Yesterday
High -- | Low -- °F
Precip. -- in
Pressure 29.74 in
Visibility 10.0 miles
Clouds Scattered Clouds 5500 ft
Mostly Cloudy 14000 ft
Mostly Cloudy 22000 ft
Windchill 41 °F
Dew Point 29 °F
Humidity 63%
Rainfall 0.02 in
Snow Depth Not available.
7:50 AM 6:02 PM
Waning Crescent, 0% visible
METAR KGRR 072353Z 22008KT 10SM SCT055 BKN140 BKN220 04/M01 A2972 RMK AO2 SLP069 T00441006 10072 20044 51003
Pressure 29.74 in
Visibility 10.0 miles
Clouds Scattered Clouds 5500 ft
Mostly Cloudy 14000 ft
Mostly Cloudy 22000 ft
Windchill 41 °F
Dew Point 29 °F
Humidity 63%
Rainfall 0.02 in
Snow Depth Not available.
7:50 AM 6:02 PM
Waning Crescent, 0% visible
METAR KGRR 072353Z 22008KT 10SM SCT055 BKN140 BKN220 04/M01 A2972 RMK AO2 SLP069 T00441006 10072 20044 51003

10-Day Weather Forecast

Almanac

Astronomy

Feb. 07, 2016 Rise Set
Actual Time
Civil Twilight
Nautical Twilight
Astronomical Twilight
Moon
Length of Visible Light
Length of Day
Tomorrow will be .
, % of the Moon is Illuminated

Today's Extremes

State Highs State Lows

Community

WunderPhotos

Upload Photos

1,891,335 photos uploaded!

WunderBlog® & News

Nearby

Air Quality

  Air Quality AQ Index Pollutant
Not available.

Snow Depth

Station Depth Elevation

Earthquake Activity

City Distance Mag. Time & Date
Minimum magnitude displayed is 2.5.

Coastal Water Temperatures

Place Temperature

Stations

Nearby Weather Stations

Station Location Temp. Windchill Dew Point Humidity Wind Precip. Elev Updated Type
                   

Watches & Warnings

There are currently no watches in effect.